Main page
METAR-TAF:

METAR-TAF

Airports :

Memmingen, Germany

latitude: 47-59-33N, longitude: 10-14-37E, elevation: 633 m

Current weather observation

The report was made 20 minutes ago, at 01:20 UTC
Wind 4 kt from the East, varying between East/Northeast and East/Southeast
Temperature 3°C
Humidity 93%
Pressure 1027 hPa
Visibility: 7000 m

METAR: EDJA 240120Z AUTO 09004KT 060V120 7000 // OVC006/// 03/02 Q1027

Time: 02:40 (01:40 UTC)

Forecast

The report was made 7 hours and 18 minutes ago, at 18:22 UTC
Forecast valid from 23 at 18 UTC to 24 at 03 UTC
Wind 4 kt from the East/Northeast
Visibility: 7000 m
Broken clouds at a height of 1300 ft
Temporary
from 23 at 18 UTC to 23 at 22 UTC
Visibility: 3500 m
Broken clouds at a height of 300 ft
light drizzle
Becoming
from 23 at 22 UTC to 24 at 01 UTC
Visibility: 0400 m
at a height of 100 ft
freezing fog

TAF: EDJA 231822Z 2318/2403 07004KT 7000 BKN013 TEMPO 2318/2322 3500 -DZ BKN003 BECMG 2322/2401 0400 FZFG VV001

Weather observations and forecasts of more than 4000 airports (METAR and TAF reports).

The available stations are represented by yellow and red dots on the map.

Hover mouse over dot to see the name of the station.

Then click to see weather observations and forecasts.

To change the map : click on the green buttons with a black cross to zoom in, on the green button with a dash to zoom out, or on the green arrows for adjacent maps.


METAR-TAF: